createdAt,value
2018-07-25T00:02:20.511Z,21.63
2018-07-25T00:04:48.278Z,21.52
2018-07-25T00:07:15.948Z,21.59
2018-07-25T00:09:43.987Z,21.58
2018-07-25T00:12:11.630Z,21.55
2018-07-25T00:14:39.295Z,21.54
2018-07-25T00:17:07.340Z,21.53
2018-07-25T00:19:35.009Z,21.52
2018-07-25T00:22:02.722Z,21.49
2018-07-25T00:24:30.835Z,21.49
2018-07-25T00:26:58.474Z,21.46
2018-07-25T00:29:26.081Z,21.44
2018-07-25T00:31:54.006Z,21.41
2018-07-25T00:34:21.610Z,21.39
2018-07-25T00:36:49.250Z,21.36
2018-07-25T00:39:17.173Z,21.34
2018-07-25T00:41:44.884Z,21.31
2018-07-25T00:44:12.482Z,21.29
2018-07-25T00:46:40.511Z,21.28
2018-07-25T00:49:08.153Z,21.27
2018-07-25T00:51:35.744Z,21.27
2018-07-25T00:54:03.834Z,21.26
2018-07-25T00:56:31.459Z,21.25
2018-07-25T00:58:59.094Z,21.24
2018-07-25T01:01:27.294Z,21.25
2018-07-25T01:03:54.915Z,21.26
2018-07-25T01:06:22.630Z,21.26
2018-07-25T01:08:50.792Z,21.26
2018-07-25T01:11:18.379Z,21.25
2018-07-25T01:13:45.983Z,21.25
2018-07-25T01:16:13.974Z,21.25
2018-07-25T01:18:41.609Z,21.25
2018-07-25T01:21:09.290Z,21.26
2018-07-25T01:23:37.288Z,21.25
2018-07-25T01:26:04.949Z,21.24
2018-07-25T01:28:32.612Z,21.24
2018-07-25T01:31:00.838Z,21.23
2018-07-25T01:33:28.341Z,21.22
2018-07-25T01:35:55.964Z,21.22
2018-07-25T01:38:24.023Z,21.23
2018-07-25T01:40:51.636Z,21.22
2018-07-25T01:43:19.267Z,21.21
2018-07-25T01:45:47.103Z,21.20
2018-07-25T01:48:14.674Z,21.20
2018-07-25T01:50:42.331Z,21.20
2018-07-25T01:53:10.295Z,21.19
2018-07-25T01:55:37.981Z,21.19
2018-07-25T01:58:05.643Z,21.19
2018-07-25T02:00:33.681Z,21.19
2018-07-25T02:03:01.416Z,21.20
2018-07-25T02:05:29.043Z,21.19
2018-07-25T02:07:57.037Z,21.18
2018-07-25T02:10:24.769Z,21.16
2018-07-25T02:12:52.372Z,21.15
2018-07-25T02:15:20.319Z,21.12
2018-07-25T02:17:47.980Z,21.11
2018-07-25T02:20:15.633Z,21.06
2018-07-25T02:22:43.611Z,21.07
2018-07-25T02:25:11.233Z,21.05
2018-07-25T02:27:38.836Z,21.06
2018-07-25T02:30:06.937Z,21.05
2018-07-25T02:32:34.546Z,21.06
2018-07-25T02:35:02.176Z,21.05
2018-07-25T02:37:30.274Z,21.03
2018-07-25T02:39:57.901Z,21.04
2018-07-25T02:42:25.559Z,21.04
2018-07-25T02:44:53.535Z,21.03
2018-07-25T02:47:21.189Z,21.03
2018-07-25T02:49:48.898Z,21.03
2018-07-25T02:52:16.629Z,21.04
2018-07-25T02:54:44.310Z,21.05
2018-07-25T02:57:11.962Z,21.08
2018-07-25T02:59:39.914Z,21.09
2018-07-25T03:02:07.561Z,21.11
2018-07-25T03:04:35.261Z,21.12
2018-07-25T03:07:03.480Z,21.13
2018-07-25T03:09:31.328Z,21.14
2018-07-25T03:11:58.994Z,21.17
2018-07-25T03:14:26.801Z,21.17
2018-07-25T03:16:54.401Z,21.19
2018-07-25T03:19:22.015Z,21.22
2018-07-25T03:21:50.011Z,21.23
2018-07-25T03:24:17.593Z,21.25
2018-07-25T03:26:45.186Z,21.27
2018-07-25T03:29:13.286Z,21.28
2018-07-25T03:31:41.051Z,21.31
2018-07-25T03:34:08.596Z,21.32
2018-07-25T03:36:36.748Z,21.36
2018-07-25T03:39:06.199Z,21.39
2018-07-25T03:41:33.854Z,21.43
2018-07-25T03:44:01.797Z,21.48
2018-07-25T03:46:29.378Z,21.51
2018-07-25T03:48:57.070Z,21.57
2018-07-25T03:51:25.174Z,21.61
2018-07-25T03:53:52.779Z,21.66
2018-07-25T03:56:20.348Z,21.69
2018-07-25T03:58:48.517Z,21.74
2018-07-25T04:01:16.090Z,21.77
2018-07-25T04:03:43.696Z,21.81
2018-07-25T04:06:11.672Z,21.87
2018-07-25T04:08:39.312Z,21.92
2018-07-25T04:11:07.198Z,21.98
2018-07-25T04:13:35.136Z,22.03
2018-07-25T04:16:02.693Z,22.07
2018-07-25T04:18:30.270Z,22.12
2018-07-25T04:20:58.315Z,22.17
2018-07-25T04:23:25.924Z,22.23
2018-07-25T04:25:53.556Z,22.27
2018-07-25T04:28:21.665Z,22.32
2018-07-25T04:30:49.312Z,22.36
2018-07-25T04:33:16.899Z,22.41
2018-07-25T04:35:44.956Z,22.46
2018-07-25T04:38:12.576Z,22.50
2018-07-25T04:40:40.157Z,22.55
2018-07-25T04:43:08.245Z,22.60
2018-07-25T04:45:35.905Z,22.64
2018-07-25T04:48:03.606Z,22.69
2018-07-25T04:50:31.517Z,22.73
2018-07-25T04:52:59.133Z,22.78
2018-07-25T04:55:26.778Z,22.83
2018-07-25T04:57:54.795Z,22.87
2018-07-25T05:00:22.409Z,22.91
2018-07-25T05:02:50.026Z,22.95
2018-07-25T05:05:18.109Z,22.99
2018-07-25T05:07:45.760Z,23.02
2018-07-25T05:10:13.428Z,23.07
2018-07-25T05:12:41.670Z,23.10
2018-07-25T05:15:09.296Z,23.14
2018-07-25T05:17:36.928Z,23.18
2018-07-25T05:20:04.955Z,23.22
2018-07-25T05:22:32.515Z,23.25
2018-07-25T05:25:00.126Z,23.29
2018-07-25T05:27:28.085Z,23.32
2018-07-25T05:29:55.696Z,23.29
2018-07-25T05:32:23.381Z,23.39
2018-07-25T05:34:51.437Z,23.43
2018-07-25T05:37:19.141Z,23.47
2018-07-25T05:39:46.790Z,23.50
2018-07-25T05:42:14.688Z,23.53
2018-07-25T05:44:42.331Z,23.56
2018-07-25T05:47:09.967Z,23.58
2018-07-25T05:49:38.078Z,23.63
2018-07-25T05:52:05.698Z,23.66
2018-07-25T05:54:33.197Z,23.71
2018-07-25T05:57:01.194Z,23.74
2018-07-25T05:59:28.737Z,23.77
2018-07-25T06:01:56.350Z,23.78
2018-07-25T06:04:24.476Z,23.80
2018-07-25T06:06:52.152Z,23.81
2018-07-25T06:09:19.711Z,23.84
2018-07-25T06:11:47.616Z,23.85
2018-07-25T06:14:15.516Z,23.88
2018-07-25T06:16:43.244Z,23.90
2018-07-25T06:19:11.199Z,23.93
2018-07-25T06:21:38.780Z,23.95
2018-07-25T06:24:06.362Z,23.96
2018-07-25T06:26:34.201Z,23.97
2018-07-25T06:29:01.842Z,24.00
2018-07-25T06:31:29.474Z,24.04
2018-07-25T06:33:57.506Z,24.06
2018-07-25T06:36:25.151Z,24.08
2018-07-25T06:38:52.684Z,24.10
2018-07-25T06:41:20.733Z,24.14
2018-07-25T06:43:48.793Z,24.15
2018-07-25T06:46:16.534Z,24.18
2018-07-25T06:48:44.515Z,24.21
2018-07-25T06:51:12.076Z,24.22
2018-07-25T06:53:39.818Z,24.23
2018-07-25T06:56:07.770Z,24.23
2018-07-25T06:58:35.381Z,24.25
2018-07-25T07:01:03.043Z,24.25
2018-07-25T07:03:30.842Z,24.26
2018-07-25T07:05:58.394Z,24.27
2018-07-25T07:08:26.042Z,24.29
2018-07-25T07:10:53.854Z,24.31
2018-07-25T07:13:21.425Z,24.33
2018-07-25T07:15:49.137Z,24.37
2018-07-25T07:18:16.940Z,24.42
2018-07-25T07:20:44.536Z,24.46
2018-07-25T07:23:12.210Z,24.52
2018-07-25T07:25:40.091Z,24.56
2018-07-25T07:28:07.722Z,24.58
2018-07-25T07:30:35.256Z,24.60
2018-07-25T07:33:03.146Z,24.62
2018-07-25T07:35:30.796Z,24.63
2018-07-25T07:37:58.324Z,24.66
2018-07-25T07:40:26.224Z,24.70
2018-07-25T07:42:53.838Z,24.72
2018-07-25T07:45:21.444Z,24.75
2018-07-25T07:47:49.416Z,24.79
2018-07-25T07:50:17.075Z,24.81
2018-07-25T07:52:44.662Z,24.85
2018-07-25T07:55:12.778Z,24.85
2018-07-25T07:57:40.353Z,24.88
2018-07-25T08:00:08.188Z,24.91
2018-07-25T08:02:36.394Z,24.93
2018-07-25T08:05:04.402Z,24.94
2018-07-25T08:07:31.949Z,24.99
2018-07-25T08:09:59.708Z,25.03
2018-07-25T08:12:27.250Z,25.08
2018-07-25T08:14:54.823Z,25.09
2018-07-25T08:17:22.841Z,25.11
2018-07-25T08:19:50.405Z,25.15
2018-07-25T08:22:18.018Z,25.19
2018-07-25T08:24:45.989Z,25.22
2018-07-25T08:27:13.533Z,25.26
2018-07-25T08:29:41.169Z,25.28
2018-07-25T08:32:09.144Z,25.29
2018-07-25T08:37:11.081Z,25.35
2018-07-25T08:39:38.680Z,25.38
2018-07-25T08:42:06.308Z,25.41
2018-07-25T08:44:34.220Z,25.44
2018-07-25T08:47:01.923Z,25.45
2018-07-25T08:49:29.538Z,25.45
2018-07-25T08:51:57.767Z,25.47
2018-07-25T08:54:25.338Z,25.50
2018-07-25T08:56:52.897Z,25.52
2018-07-25T08:59:20.712Z,25.57
2018-07-25T09:01:48.334Z,25.56
2018-07-25T09:04:15.860Z,25.59
2018-07-25T09:06:43.718Z,25.61
2018-07-25T09:09:11.373Z,25.65
2018-07-25T09:11:38.924Z,25.70
2018-07-25T09:14:06.621Z,25.78
2018-07-25T09:16:34.287Z,25.82
2018-07-25T09:19:02.607Z,25.82
2018-07-25T09:21:30.443Z,25.87
2018-07-25T09:23:58.082Z,25.91
2018-07-25T09:26:25.682Z,25.98
2018-07-25T09:28:53.791Z,26.02
2018-07-25T09:31:21.428Z,26.06
2018-07-25T09:33:49.073Z,26.10
2018-07-25T09:36:16.874Z,26.15
2018-07-25T09:38:44.518Z,26.18
2018-07-25T09:41:12.139Z,26.28
2018-07-25T09:43:40.126Z,26.35
2018-07-25T09:46:07.809Z,26.48
2018-07-25T09:48:35.355Z,26.60
2018-07-25T09:51:03.139Z,26.74
2018-07-25T09:53:30.772Z,26.89
2018-07-25T09:55:58.363Z,27.09
2018-07-25T09:58:26.219Z,27.27
2018-07-25T10:00:53.858Z,27.43
2018-07-25T10:03:21.382Z,27.51
2018-07-25T10:05:49.400Z,27.77
2018-07-25T10:08:17.495Z,27.98
2018-07-25T10:10:45.329Z,28.17
2018-07-25T10:13:13.294Z,28.36
2018-07-25T10:15:40.885Z,28.53
2018-07-25T10:18:08.492Z,28.66
2018-07-25T10:20:36.498Z,28.73
2018-07-25T10:23:04.252Z,28.80
2018-07-25T10:25:32.044Z,28.92
2018-07-25T10:28:00.032Z,29.02
2018-07-25T10:30:27.642Z,29.09
2018-07-25T10:32:55.294Z,29.21
2018-07-25T10:35:23.331Z,29.35
2018-07-25T10:37:50.835Z,29.44
2018-07-25T10:40:18.427Z,29.45
2018-07-25T10:42:46.616Z,29.52
2018-07-25T10:45:14.178Z,29.59
2018-07-25T10:47:41.749Z,29.61
2018-07-25T10:50:09.982Z,29.69
2018-07-25T10:52:37.582Z,29.74
2018-07-25T10:55:05.367Z,29.69
2018-07-25T10:57:33.764Z,29.70
2018-07-25T11:00:01.490Z,29.68
2018-07-25T11:02:29.155Z,29.61
2018-07-25T11:04:57.020Z,29.54
2018-07-25T11:07:24.555Z,29.52
2018-07-25T11:09:52.142Z,29.47
2018-07-25T11:12:20.039Z,29.44
2018-07-25T11:14:47.623Z,29.51
2018-07-25T11:17:15.193Z,29.56
2018-07-25T11:19:43.293Z,29.60
2018-07-25T11:22:11.053Z,29.57
2018-07-25T11:24:38.581Z,29.57
2018-07-25T11:27:06.650Z,29.66
2018-07-25T11:29:34.231Z,29.79
2018-07-25T11:32:01.892Z,29.79
2018-07-25T11:34:29.979Z,29.74
2018-07-25T11:36:57.664Z,29.71
2018-07-25T11:39:25.295Z,29.67
2018-07-25T11:41:53.232Z,29.68
2018-07-25T11:44:20.803Z,29.70
2018-07-25T11:46:48.405Z,29.69
2018-07-25T11:49:16.302Z,29.67
2018-07-25T11:51:43.952Z,29.65
2018-07-25T11:54:11.562Z,29.69
2018-07-25T11:56:39.578Z,29.71
2018-07-25T11:59:07.178Z,29.71
2018-07-25T12:01:34.836Z,29.67
2018-07-25T12:04:02.885Z,29.65
2018-07-25T12:06:30.455Z,29.71
2018-07-25T12:08:58.168Z,29.76
2018-07-25T12:11:26.362Z,29.82
2018-07-25T12:13:54.145Z,29.79
2018-07-25T12:16:21.745Z,29.73
2018-07-25T12:18:49.648Z,29.72
2018-07-25T12:21:17.240Z,29.63
2018-07-25T12:23:44.991Z,29.56
2018-07-25T12:26:12.952Z,29.51
2018-07-25T12:28:40.552Z,29.49
2018-07-25T12:31:08.386Z,29.42
2018-07-25T12:33:36.143Z,29.36
2018-07-25T12:36:04.181Z,29.38
2018-07-25T12:38:31.820Z,29.46
2018-07-25T12:40:59.614Z,29.58
2018-07-25T12:43:27.159Z,29.70
2018-07-25T12:45:54.823Z,29.71
2018-07-25T12:48:22.564Z,29.74
2018-07-25T12:50:50.143Z,29.77
2018-07-25T12:53:17.815Z,29.80
2018-07-25T12:55:45.734Z,29.81
2018-07-25T12:58:13.373Z,29.77
2018-07-25T13:00:40.986Z,29.71
2018-07-25T13:03:08.868Z,29.65
2018-07-25T13:05:36.525Z,29.63
2018-07-25T13:08:04.174Z,29.63
2018-07-25T13:10:32.149Z,29.65
2018-07-25T13:12:59.714Z,29.60
2018-07-25T13:15:27.314Z,29.56
2018-07-25T13:17:55.232Z,29.56
2018-07-25T13:20:22.823Z,29.52
2018-07-25T13:22:50.532Z,29.35
2018-07-25T13:25:18.669Z,29.16
2018-07-25T13:27:46.276Z,28.98
2018-07-25T13:30:13.887Z,28.81
2018-07-25T13:32:41.854Z,28.63
2018-07-25T13:35:09.476Z,28.47
2018-07-25T13:37:37.104Z,28.29
2018-07-25T13:40:05.151Z,28.14
2018-07-25T13:42:32.841Z,28.00
2018-07-25T13:45:00.414Z,27.93
2018-07-25T13:47:28.276Z,27.88
2018-07-25T13:49:56.005Z,27.79
2018-07-25T13:52:23.522Z,27.65
2018-07-25T13:54:51.520Z,27.55
2018-07-25T13:57:19.138Z,27.53
2018-07-25T13:59:46.847Z,27.52
2018-07-25T14:02:14.552Z,27.51
2018-07-25T14:04:42.143Z,27.51
2018-07-25T14:07:09.747Z,27.46
2018-07-25T14:09:37.487Z,27.42
2018-07-25T14:12:05.170Z,27.33
2018-07-25T14:14:32.690Z,27.20
2018-07-25T14:17:00.468Z,27.13
2018-07-25T14:19:28.060Z,27.06
2018-07-25T14:21:55.610Z,27.04
2018-07-25T14:24:23.556Z,27.06
2018-07-25T14:26:51.292Z,27.07
2018-07-25T14:29:18.917Z,27.07
2018-07-25T14:31:46.939Z,27.05
2018-07-25T14:34:14.470Z,27.04
2018-07-25T14:36:42.040Z,27.04
2018-07-25T14:39:10.651Z,27.03
2018-07-25T14:41:38.950Z,27.01
2018-07-25T14:44:06.561Z,26.99
2018-07-25T14:46:34.575Z,26.98
2018-07-25T14:49:02.072Z,26.95
2018-07-25T14:51:29.670Z,26.88
2018-07-25T14:53:58.887Z,26.82
2018-07-25T14:56:26.507Z,26.80
2018-07-25T14:58:54.031Z,26.77
2018-07-25T15:01:22.095Z,26.77
2018-07-25T15:03:49.623Z,26.80
2018-07-25T15:06:17.193Z,26.82
2018-07-25T15:08:45.042Z,26.78
2018-07-25T15:11:12.628Z,26.77
2018-07-25T15:13:40.209Z,26.77
2018-07-25T15:16:08.309Z,26.80
2018-07-25T15:18:35.903Z,26.80
2018-07-25T15:21:03.553Z,26.80
2018-07-25T15:23:42.463Z,26.76
2018-07-25T15:26:10.101Z,26.75
2018-07-25T15:28:37.723Z,26.76
2018-07-25T15:31:05.603Z,26.78
2018-07-25T15:33:33.293Z,26.79
2018-07-25T15:36:00.899Z,26.81
2018-07-25T15:38:28.698Z,26.86
2018-07-25T15:40:56.417Z,26.85
2018-07-25T15:43:24.193Z,26.87
2018-07-25T15:45:51.978Z,26.92
2018-07-25T15:48:19.779Z,26.92
2018-07-25T15:50:47.382Z,26.90
2018-07-25T15:53:15.135Z,26.92
2018-07-25T15:55:42.958Z,26.95
2018-07-25T15:58:10.620Z,26.99
2018-07-25T16:00:38.270Z,27.06
2018-07-25T16:03:06.093Z,27.10
2018-07-25T16:05:33.663Z,27.13
2018-07-25T16:08:01.357Z,27.15
2018-07-25T16:10:29.059Z,27.18
2018-07-25T16:12:56.658Z,27.22
2018-07-25T16:15:24.514Z,27.26
2018-07-25T16:17:52.194Z,27.24
2018-07-25T16:20:19.757Z,27.18
2018-07-25T16:22:47.522Z,27.13
2018-07-25T16:25:15.347Z,27.10
2018-07-25T16:27:42.981Z,27.09
2018-07-25T16:30:10.627Z,27.09
2018-07-25T16:32:38.468Z,27.07
2018-07-25T16:35:06.012Z,27.02
2018-07-25T16:37:33.640Z,26.97
2018-07-25T16:40:01.423Z,26.92
2018-07-25T16:42:29.002Z,26.86
2018-07-25T16:44:57.184Z,26.84
2018-07-25T16:47:24.997Z,26.81
2018-07-25T16:49:52.640Z,26.74
2018-07-25T16:52:20.497Z,26.70
2018-07-25T16:54:48.331Z,26.65
2018-07-25T16:57:15.943Z,26.58
2018-07-25T16:59:43.670Z,26.52
2018-07-25T17:02:11.792Z,26.48
2018-07-25T17:04:39.722Z,26.44
2018-07-25T17:07:07.421Z,26.40
2018-07-25T17:09:35.104Z,26.35
2018-07-25T17:12:02.774Z,26.33
2018-07-25T17:14:30.414Z,26.29
2018-07-25T17:16:58.093Z,26.25
2018-07-25T17:19:25.683Z,26.21
2018-07-25T17:21:53.316Z,26.14
2018-07-25T17:24:21.061Z,26.08
2018-07-25T17:26:48.676Z,26.04
2018-07-25T17:29:16.494Z,26.01
2018-07-25T17:31:44.152Z,25.95
2018-07-25T17:34:11.730Z,25.89
2018-07-25T17:36:39.368Z,25.84
2018-07-25T17:39:08.747Z,25.77
2018-07-25T17:41:36.473Z,25.71
2018-07-25T17:44:04.349Z,25.67
2018-07-25T17:46:32.264Z,25.64
2018-07-25T17:48:59.816Z,25.62
2018-07-25T17:51:27.615Z,25.56
2018-07-25T17:53:55.363Z,25.50
2018-07-25T17:56:23.138Z,25.48
2018-07-25T17:58:50.908Z,25.46
2018-07-25T18:01:18.702Z,25.44
2018-07-25T18:03:46.298Z,25.41
2018-07-25T18:06:13.933Z,25.39
2018-07-25T18:08:41.556Z,25.34
2018-07-25T18:11:09.141Z,25.30
2018-07-25T18:13:42.277Z,25.26
2018-07-25T18:16:10.290Z,25.21
2018-07-25T18:18:37.882Z,25.17
2018-07-25T18:21:05.584Z,25.12
2018-07-25T18:23:33.387Z,25.07
2018-07-25T18:26:01.008Z,25.02
2018-07-25T18:28:28.587Z,24.99
2018-07-25T18:30:56.458Z,24.94
2018-07-25T18:33:24.041Z,24.89
2018-07-25T18:35:51.682Z,24.84
2018-07-25T18:38:19.476Z,24.78
2018-07-25T18:40:47.132Z,24.73
2018-07-25T18:43:14.711Z,24.68
2018-07-25T18:45:42.585Z,24.63
2018-07-25T18:48:10.428Z,24.61
2018-07-25T18:50:37.978Z,24.60
2018-07-25T18:53:05.897Z,24.60
2018-07-25T18:55:33.456Z,24.59
2018-07-25T18:58:01.040Z,24.58
2018-07-25T19:00:28.853Z,24.56
2018-07-25T19:02:56.440Z,24.52
2018-07-25T19:05:30.327Z,24.49
2018-07-25T19:07:58.756Z,24.48
2018-07-25T19:10:26.285Z,24.45
2018-07-25T19:12:54.196Z,24.42
2018-07-25T19:15:27.316Z,24.40
2018-07-25T19:17:55.046Z,24.36
2018-07-25T19:20:22.927Z,24.32
2018-07-25T19:22:50.799Z,24.29
2018-07-25T19:25:18.695Z,24.28
2018-07-25T19:27:46.372Z,24.25
2018-07-25T19:30:13.958Z,24.23
2018-07-25T19:32:41.701Z,24.21
2018-07-25T19:35:09.507Z,24.18
2018-07-25T19:37:37.109Z,24.18
2018-07-25T19:40:04.963Z,24.16
2018-07-25T19:42:32.821Z,24.15
2018-07-25T19:45:00.452Z,24.14
2018-07-25T19:47:28.088Z,24.13
2018-07-25T19:49:56.143Z,24.13
2018-07-25T19:52:23.732Z,24.09
2018-07-25T19:54:51.479Z,24.07
2018-07-25T19:57:19.287Z,24.04
2018-07-25T19:59:46.920Z,24.02
2018-07-25T20:02:14.686Z,24.01
2018-07-25T20:04:42.574Z,23.99
2018-07-25T20:07:10.157Z,23.96
2018-07-25T20:09:38.701Z,23.96
2018-07-25T20:12:06.838Z,23.95
2018-07-25T20:14:40.135Z,23.95
2018-07-25T20:17:08.529Z,23.91
2018-07-25T20:19:36.252Z,23.87
2018-07-25T20:22:03.957Z,23.87
2018-07-25T20:24:32.019Z,23.86
2018-07-25T20:26:59.581Z,23.85
2018-07-25T20:29:27.155Z,23.83
2018-07-25T20:31:55.117Z,23.80
2018-07-25T20:34:22.722Z,23.80
2018-07-25T20:36:50.382Z,23.79
2018-07-25T20:39:18.413Z,23.77
2018-07-25T20:41:46.104Z,23.76
2018-07-25T20:44:13.642Z,23.74
2018-07-25T20:46:41.487Z,23.73
2018-07-25T20:49:09.090Z,23.70
2018-07-25T20:51:37.116Z,23.69
2018-07-25T20:54:05.034Z,23.67
2018-07-25T20:56:32.780Z,23.65
2018-07-25T20:59:00.340Z,23.64
2018-07-25T21:01:28.375Z,23.62
2018-07-25T21:03:55.948Z,23.63
2018-07-25T21:06:23.500Z,23.62
2018-07-25T21:08:51.580Z,23.59
2018-07-25T21:11:19.351Z,23.58
2018-07-25T21:13:46.936Z,23.59
2018-07-25T21:16:14.856Z,23.60
2018-07-25T21:18:42.403Z,23.58
2018-07-25T21:21:10.090Z,23.55
2018-07-25T21:23:38.158Z,23.55
2018-07-25T21:26:05.670Z,23.53
2018-07-25T21:28:33.215Z,23.52
2018-07-25T21:31:01.352Z,23.51
2018-07-25T21:33:28.898Z,23.49
2018-07-25T21:35:56.516Z,23.47
2018-07-25T21:38:24.545Z,23.45
2018-07-25T21:40:52.104Z,23.44
2018-07-25T21:43:19.640Z,23.41
2018-07-25T21:45:47.545Z,23.37
2018-07-25T21:48:15.154Z,23.34
2018-07-25T21:50:42.661Z,23.32
2018-07-25T21:53:10.672Z,23.28
2018-07-25T21:55:38.241Z,23.26
2018-07-25T21:58:05.759Z,23.22
2018-07-25T22:00:33.514Z,23.18
2018-07-25T22:03:01.108Z,23.16
2018-07-25T22:05:28.702Z,23.13
2018-07-25T22:07:56.428Z,23.11
2018-07-25T22:10:25.967Z,23.09
2018-07-25T22:12:54.330Z,23.07
2018-07-25T22:15:22.279Z,23.06
2018-07-25T22:17:49.809Z,23.03
2018-07-25T22:20:17.404Z,23.00
2018-07-25T22:22:45.478Z,22.98
2018-07-25T22:25:12.991Z,22.97
2018-07-25T22:27:40.521Z,22.95
2018-07-25T22:30:08.644Z,22.93
2018-07-25T22:32:36.252Z,22.93
2018-07-25T22:35:03.908Z,22.90
2018-07-25T22:37:31.838Z,22.89
2018-07-25T22:39:59.408Z,22.88
2018-07-25T22:42:26.945Z,22.87
2018-07-25T22:44:54.862Z,22.86
2018-07-25T22:47:22.390Z,22.84
2018-07-25T22:49:49.969Z,22.84
2018-07-25T22:52:17.737Z,22.84
2018-07-25T22:54:45.765Z,22.81
2018-07-25T22:57:13.361Z,22.79
2018-07-25T22:59:41.264Z,22.78
2018-07-25T23:02:08.817Z,22.75
2018-07-25T23:04:36.415Z,22.73
2018-07-25T23:07:04.589Z,22.72
2018-07-25T23:09:32.130Z,22.72
2018-07-25T23:11:59.787Z,22.70
2018-07-25T23:14:27.722Z,22.71
2018-07-25T23:16:55.375Z,22.70
2018-07-25T23:19:22.949Z,22.70
2018-07-25T23:21:50.814Z,22.70
2018-07-25T23:24:18.466Z,22.68
2018-07-25T23:26:46.031Z,22.65
2018-07-25T23:29:13.975Z,22.63
2018-07-25T23:31:41.548Z,22.61
2018-07-25T23:34:09.131Z,22.58
2018-07-25T23:36:37.042Z,22.54
2018-07-25T23:39:06.655Z,22.52
2018-07-25T23:41:34.209Z,22.48
2018-07-25T23:44:02.059Z,22.46
2018-07-25T23:46:29.658Z,22.41
2018-07-25T23:48:57.257Z,22.38
2018-07-25T23:51:25.205Z,22.34
2018-07-25T23:53:52.781Z,22.33
2018-07-25T23:56:20.669Z,22.31
2018-07-25T23:58:48.420Z,22.30
